createdAt,value
2023-02-24T00:02:20.419Z,27.05
2023-02-24T00:06:39.058Z,28.30
2023-02-24T00:10:52.448Z,27.05
2023-02-24T00:15:05.361Z,27.55
2023-02-24T00:19:20.042Z,29.17
2023-02-24T00:23:32.422Z,29.92
2023-02-24T00:27:44.872Z,31.33
2023-02-24T00:32:07.024Z,33.00
2023-02-24T00:36:24.056Z,31.60
2023-02-24T00:40:37.540Z,34.15
2023-02-24T00:44:50.151Z,32.83
2023-02-24T00:49:08.013Z,34.88
2023-02-24T00:53:22.909Z,32.78
2023-02-24T00:57:35.728Z,39.20
2023-02-24T01:01:50.850Z,42.55
2023-02-24T01:06:03.796Z,39.15
2023-02-24T01:10:18.730Z,39.80
2023-02-24T01:14:33.781Z,40.90
2023-02-24T01:18:50.054Z,37.58
2023-02-24T01:23:03.716Z,34.90
2023-02-24T01:27:20.603Z,38.42
2023-02-24T01:31:33.020Z,34.47
2023-02-24T01:35:45.905Z,38.08
2023-02-24T01:39:59.741Z,43.45
2023-02-24T01:44:15.007Z,39.28
2023-02-24T01:48:30.263Z,38.90
2023-02-24T01:52:45.889Z,57.15
2023-02-24T01:56:59.123Z,38.60
2023-02-24T02:01:11.555Z,42.92
2023-02-24T02:05:25.267Z,37.00
2023-02-24T02:09:43.284Z,36.88
2023-02-24T02:13:57.169Z,39.55
2023-02-24T02:18:25.918Z,37.88
2023-02-24T02:23:19.681Z,38.88
2023-02-24T02:27:38.302Z,37.78
2023-02-24T02:32:38.652Z,37.00
2023-02-24T02:36:57.680Z,38.92
2023-02-24T02:41:23.991Z,37.80
2023-02-24T02:45:56.280Z,39.28
2023-02-24T02:50:30.843Z,43.88
2023-02-24T02:54:50.759Z,42.88
2023-02-24T02:59:07.548Z,43.75
2023-02-24T03:03:22.530Z,43.45
2023-02-24T03:07:43.087Z,43.20
2023-02-24T03:12:02.479Z,44.40
2023-02-24T03:16:18.892Z,46.15
2023-02-24T03:20:40.025Z,48.50
2023-02-24T03:24:53.815Z,42.67
2023-02-24T03:29:36.797Z,41.67
2023-02-24T03:34:00.931Z,39.95
2023-02-24T03:38:14.504Z,39.13
2023-02-24T03:42:34.075Z,35.15
2023-02-24T03:50:59.774Z,38.47
2023-02-24T03:56:02.178Z,42.72
2023-02-24T04:00:37.402Z,43.90
2023-02-24T04:05:05.971Z,45.72
2023-02-24T04:09:57.456Z,43.67
2023-02-24T04:14:25.045Z,38.47
2023-02-24T04:18:40.874Z,39.33
2023-02-24T04:23:02.771Z,37.03
2023-02-24T04:27:16.995Z,32.35
2023-02-24T04:31:32.842Z,33.45
2023-02-24T04:35:48.387Z,33.95
2023-02-24T04:40:03.570Z,34.70
2023-02-24T04:44:21.452Z,34.25
2023-02-24T04:48:36.984Z,38.38
2023-02-24T04:53:01.209Z,40.05
2023-02-24T04:57:14.708Z,38.65
2023-02-24T05:01:28.148Z,39.05
2023-02-24T05:05:43.219Z,36.60
2023-02-24T05:09:55.611Z,36.70
2023-02-24T05:14:08.463Z,38.40
2023-02-24T05:18:21.163Z,36.95
2023-02-24T05:22:33.568Z,37.25
2023-02-24T05:26:46.972Z,36.83
2023-02-24T05:31:08.719Z,37.92
2023-02-24T05:35:21.446Z,38.58
2023-02-24T05:39:35.469Z,37.10
2023-02-24T05:43:55.229Z,37.00
2023-02-24T05:48:07.587Z,39.70
2023-02-24T05:52:20.749Z,39.75
2023-02-24T05:56:38.077Z,39.42
2023-02-24T06:00:50.512Z,38.15
2023-02-24T06:05:04.761Z,43.03
2023-02-24T06:09:17.178Z,41.67
2023-02-24T06:13:29.617Z,42.00
2023-02-24T06:17:42.174Z,34.80
2023-02-24T06:21:55.969Z,31.42
2023-02-24T06:26:19.758Z,28.23
2023-02-24T06:30:33.130Z,27.92
2023-02-24T06:34:46.005Z,30.38
2023-02-24T06:38:58.415Z,30.35
2023-02-24T06:43:11.230Z,27.20
2023-02-24T06:47:23.724Z,26.65
2023-02-24T06:51:36.060Z,30.00
2023-02-24T06:55:49.224Z,34.10
2023-02-24T07:00:17.279Z,28.05
2023-02-24T07:04:30.093Z,38.47
2023-02-24T07:08:44.331Z,34.08
2023-02-24T07:12:56.755Z,38.90
2023-02-24T07:17:09.369Z,39.90
2023-02-24T07:21:23.794Z,33.42
2023-02-24T07:25:36.277Z,34.95
2023-02-24T07:29:53.532Z,37.97
2023-02-24T07:34:06.712Z,29.35
2023-02-24T07:38:23.220Z,43.67
2023-02-24T07:42:35.694Z,65.22
2023-02-24T07:46:52.621Z,66.13
2023-02-24T07:51:13.451Z,65.65
2023-02-24T07:55:31.435Z,71.15
2023-02-24T07:59:47.891Z,57.88
2023-02-24T08:04:08.387Z,68.78
2023-02-24T08:08:25.810Z,63.15
2023-02-24T08:12:42.995Z,62.33
2023-02-24T08:17:05.620Z,62.13
2023-02-24T08:21:21.253Z,67.63
2023-02-24T08:25:36.911Z,46.00
2023-02-24T08:30:00.619Z,45.30
2023-02-24T08:34:16.359Z,39.85
2023-02-24T08:38:40.259Z,35.63
2023-02-24T08:42:52.758Z,26.95
2023-02-24T08:47:07.772Z,31.92
2023-02-24T08:51:29.203Z,28.05
2023-02-24T08:55:43.003Z,27.05
2023-02-24T08:59:58.249Z,29.02
2023-02-24T09:04:13.075Z,33.30
2023-02-24T09:08:36.060Z,30.92
2023-02-24T09:12:53.841Z,31.48
2023-02-24T09:17:11.802Z,28.52
2023-02-24T09:21:42.485Z,23.70
2023-02-24T09:25:54.883Z,27.15
2023-02-24T09:30:08.376Z,27.85
2023-02-24T09:34:20.674Z,21.00
2023-02-24T09:39:11.359Z,21.10
2023-02-24T09:43:31.060Z,21.13
2023-02-24T09:47:57.601Z,23.00
2023-02-24T09:52:17.734Z,14.98
2023-02-24T09:56:57.520Z,16.83
2023-02-24T10:01:33.755Z,17.53
2023-02-24T10:06:04.926Z,18.55
2023-02-24T10:10:36.157Z,18.48
2023-02-24T10:15:32.500Z,16.98
2023-02-24T10:19:45.078Z,17.73
2023-02-24T10:24:14.634Z,18.35
2023-02-24T10:28:52.186Z,16.08
2023-02-24T10:33:06.454Z,14.60
2023-02-24T10:37:28.717Z,18.67
2023-02-24T10:41:50.213Z,14.93
2023-02-24T10:46:17.647Z,17.73
2023-02-24T10:50:55.043Z,14.05
2023-02-24T10:55:41.650Z,16.92
2023-02-24T11:00:19.399Z,15.90
2023-02-24T11:05:10.139Z,13.45
2023-02-24T11:09:28.003Z,13.02
2023-02-24T11:14:07.484Z,14.50
2023-02-24T11:18:23.522Z,11.20
2023-02-24T11:22:39.890Z,14.02
2023-02-24T11:26:52.702Z,10.90
2023-02-24T11:31:28.831Z,17.98
2023-02-24T11:35:48.663Z,16.70
2023-02-24T11:40:23.557Z,18.05
2023-02-24T11:44:54.604Z,13.48
2023-02-24T11:49:22.310Z,9.00
2023-02-24T11:53:57.879Z,11.57
2023-02-24T11:58:44.622Z,8.60
2023-02-24T12:03:09.744Z,11.27
2023-02-24T12:07:50.692Z,16.05
2023-02-24T12:12:13.602Z,16.75
2023-02-24T12:16:40.856Z,13.23
2023-02-24T12:21:10.782Z,13.80
2023-02-24T12:25:36.049Z,21.60
2023-02-24T12:30:34.457Z,12.27
2023-02-24T12:35:07.767Z,13.80
2023-02-24T12:39:32.440Z,17.70
2023-02-24T12:44:13.976Z,19.50
2023-02-24T12:49:03.929Z,16.50
2023-02-24T12:53:41.733Z,12.48
2023-02-24T12:58:18.180Z,14.27
2023-02-24T13:03:24.519Z,13.48
2023-02-24T13:07:49.940Z,14.27
2023-02-24T13:12:28.309Z,9.80
2023-02-24T13:16:41.897Z,12.27
2023-02-24T13:21:23.047Z,13.95
2023-02-24T13:25:39.882Z,11.35
2023-02-24T13:29:53.571Z,14.32
2023-02-24T13:34:14.966Z,12.27
2023-02-24T13:38:33.169Z,17.60
2023-02-24T13:43:01.809Z,12.43
2023-02-24T13:47:41.035Z,13.60
2023-02-24T13:52:00.034Z,13.65
2023-02-24T13:56:34.399Z,14.63
2023-02-24T14:01:01.570Z,17.73
2023-02-24T14:05:41.762Z,10.38
2023-02-24T14:10:01.683Z,11.05
2023-02-24T14:14:19.055Z,14.20
2023-02-24T14:18:31.707Z,12.45
2023-02-24T14:22:46.769Z,12.07
2023-02-24T14:27:01.262Z,15.02
2023-02-24T14:31:16.543Z,15.90
2023-02-24T14:35:58.237Z,14.75
2023-02-24T14:40:16.372Z,12.55
2023-02-24T14:44:30.365Z,14.95
2023-02-24T14:48:44.388Z,10.80
2023-02-24T14:53:13.566Z,12.32
2023-02-24T14:57:30.820Z,15.83
2023-02-24T15:01:51.979Z,10.00
2023-02-24T15:06:15.946Z,8.90
2023-02-24T15:10:31.280Z,21.05
2023-02-24T15:14:51.365Z,17.02
2023-02-24T15:19:03.872Z,10.40
2023-02-24T15:23:38.385Z,13.82
2023-02-24T15:27:58.697Z,15.73
2023-02-24T15:32:21.777Z,12.38
2023-02-24T15:36:36.321Z,17.40
2023-02-24T15:41:01.335Z,14.25
2023-02-24T15:45:30.806Z,12.48
2023-02-24T15:49:43.440Z,12.93
2023-02-24T15:53:56.992Z,11.38
2023-02-24T15:58:18.920Z,12.77
2023-02-24T16:02:31.303Z,13.13
2023-02-24T16:06:54.783Z,18.77
2023-02-24T16:11:07.148Z,16.25
2023-02-24T16:15:27.522Z,13.82
2023-02-24T16:19:40.744Z,18.27
2023-02-24T16:23:53.166Z,20.10
2023-02-24T16:28:05.713Z,18.85
2023-02-24T16:32:18.475Z,19.88
2023-02-24T16:36:31.616Z,18.05
2023-02-24T16:40:46.888Z,19.52
2023-02-24T16:44:59.213Z,18.67
2023-02-24T16:49:18.412Z,19.73
2023-02-24T16:53:31.255Z,19.23
2023-02-24T16:57:45.115Z,18.88
2023-02-24T17:01:58.169Z,24.55
2023-02-24T17:06:10.747Z,25.92
2023-02-24T17:10:24.429Z,26.48
2023-02-24T17:14:36.715Z,29.10
2023-02-24T17:18:49.109Z,24.48
2023-02-24T17:23:01.719Z,19.98
2023-02-24T17:27:14.561Z,20.65
2023-02-24T17:31:32.025Z,18.90
2023-02-24T17:35:47.333Z,22.88
2023-02-24T17:39:59.981Z,19.77
2023-02-24T17:44:12.427Z,18.63
2023-02-24T17:48:24.920Z,16.92
2023-02-24T17:52:37.535Z,20.95
2023-02-24T17:56:49.941Z,21.30
2023-02-24T18:01:03.717Z,23.50
2023-02-24T18:05:16.283Z,24.25
2023-02-24T18:09:29.416Z,22.17
2023-02-24T18:13:42.040Z,21.40
2023-02-24T18:17:54.551Z,17.88
2023-02-24T18:22:07.465Z,20.30
2023-02-24T18:26:21.901Z,25.25
2023-02-24T18:30:39.468Z,21.05
2023-02-24T18:34:51.833Z,22.85
2023-02-24T18:39:05.271Z,27.75
2023-02-24T18:43:17.663Z,27.20
2023-02-24T18:47:29.950Z,25.77
2023-02-24T18:51:42.508Z,24.58
2023-02-24T18:56:02.723Z,21.92
2023-02-24T19:00:15.798Z,24.25
2023-02-24T19:04:28.483Z,24.27
2023-02-24T19:08:42.694Z,27.33
2023-02-24T19:12:55.099Z,26.00
2023-02-24T19:17:07.499Z,30.10
2023-02-24T19:21:21.178Z,29.83
2023-02-24T19:25:34.569Z,30.75
2023-02-24T19:29:47.071Z,30.27
2023-02-24T19:34:02.118Z,34.58
2023-02-24T19:38:17.323Z,36.05
2023-02-24T19:42:30.820Z,31.25
2023-02-24T19:46:43.655Z,38.20
2023-02-24T19:50:56.260Z,39.63
2023-02-24T19:55:10.300Z,37.05
2023-02-24T19:59:23.130Z,40.22
2023-02-24T20:03:39.826Z,38.30
2023-02-24T20:07:52.239Z,37.72
2023-02-24T20:12:04.720Z,39.85
2023-02-24T20:16:19.434Z,36.13
2023-02-24T20:20:31.962Z,34.72
2023-02-24T20:24:47.735Z,41.47
2023-02-24T20:29:02.106Z,43.35
2023-02-24T20:33:15.327Z,49.95
2023-02-24T20:37:27.625Z,35.33
2023-02-24T20:41:40.799Z,36.88
2023-02-24T20:45:53.841Z,34.95
2023-02-24T20:50:06.888Z,37.75
2023-02-24T20:54:19.421Z,31.98
2023-02-24T20:58:32.139Z,33.53
2023-02-24T21:02:45.711Z,35.38
2023-02-24T21:06:58.147Z,30.75
2023-02-24T21:11:12.713Z,33.33
2023-02-24T21:15:25.105Z,38.08
2023-02-24T21:19:38.011Z,33.53
2023-02-24T21:23:51.545Z,38.10
2023-02-24T21:28:04.134Z,40.97
2023-02-24T21:32:16.710Z,30.15
2023-02-24T21:36:29.180Z,29.02
2023-02-24T21:40:41.606Z,30.58
2023-02-24T21:44:59.016Z,30.25
2023-02-24T21:49:15.101Z,33.22
2023-02-24T21:53:30.300Z,28.15
2023-02-24T21:57:45.040Z,25.88
2023-02-24T22:01:57.518Z,30.83
2023-02-24T22:06:11.736Z,27.77
2023-02-24T22:10:24.231Z,26.65
2023-02-24T22:14:36.730Z,28.08
2023-02-24T22:18:50.941Z,35.90
2023-02-24T22:23:03.665Z,28.15
2023-02-24T22:27:16.134Z,28.60
2023-02-24T22:31:32.561Z,25.20
2023-02-24T22:35:44.926Z,26.25
2023-02-24T22:39:58.571Z,30.83
2023-02-24T22:44:11.346Z,31.95
2023-02-24T22:48:27.019Z,24.73
2023-02-24T22:52:40.164Z,26.02
2023-02-24T22:56:56.621Z,24.30
2023-02-24T23:01:14.251Z,28.48
2023-02-24T23:05:26.725Z,22.77
2023-02-24T23:09:39.202Z,24.85
2023-02-24T23:13:52.277Z,26.50
2023-02-24T23:18:04.875Z,26.00
2023-02-24T23:22:19.288Z,23.40
2023-02-24T23:26:34.705Z,24.23
2023-02-24T23:30:48.028Z,25.63
2023-02-24T23:35:00.483Z,27.77
2023-02-24T23:39:15.189Z,28.75
2023-02-24T23:43:27.682Z,29.45
2023-02-24T23:47:40.056Z,28.42
2023-02-24T23:51:52.570Z,24.75
2023-02-24T23:56:18.285Z,27.23
